Time;durP1;ratioP1;P1;durP2;ratioP2;P2;SDS_P1;SDS_P2;PMS_P1;PMS_P2;Temp;Humidity;BMP_temperature;BMP_pressure;BME280_temperature;BME280_humidity;BME280_pressure;Samples;Min_cycle;Max_cycle;Signal;HPM_P1;HPM_P2
2023/10/10 00:00:56;;;;;;;7.45;5.45;;;19.30;81.90;;;;;;10485106;28;20021;-58
2023/10/10 00:05:58;;;;;;;5.20;4.25;;;19.30;81.90;;;;;;10494250;28;20135;-58
2023/10/10 00:11:00;;;;;;;4.88;3.70;;;19.30;81.90;;;;;;10494427;28;20158;-58
2023/10/10 00:16:05;;;;;;;6.10;4.82;;;19.30;81.90;;;;;;10475757;28;20053;-58
2023/10/10 00:21:20;;;;;;;8.18;5.15;;;19.30;81.80;;;;;;10494063;28;20484;-57
2023/10/10 00:26:22;;;;;;;5.68;4.60;;;19.30;81.80;;;;;;10493011;28;20025;-58
2023/10/10 00:31:28;;;;;;;6.03;4.75;;;19.30;81.80;;;;;;10493375;28;20123;-57
2023/10/10 00:36:35;;;;;;;5.00;4.15;;;19.30;81.80;;;;;;10493162;28;20476;-57
2023/10/10 00:46:55;;;;;;;5.05;4.18;;;19.30;81.80;;;;;;10492654;28;20052;-57
2023/10/10 00:52:02;;;;;;;5.68;4.38;;;19.30;81.70;;;;;;10475093;28;20079;-58
2023/10/10 00:57:07;;;;;;;6.68;5.22;;;19.20;81.70;;;;;;10475047;28;20043;-58
2023/10/10 01:02:14;;;;;;;6.25;4.40;;;19.30;81.70;;;;;;10465330;28;20029;-58
2023/10/10 01:07:21;;;;;;;5.25;4.75;;;19.20;81.70;;;;;;10491831;28;20059;-58
2023/10/10 01:12:35;;;;;;;6.38;4.55;;;19.20;81.70;;;;;;10492388;28;20111;-58
2023/10/10 01:17:37;;;;;;;5.30;4.50;;;19.20;81.70;;;;;;10491320;28;20525;-58
2023/10/10 01:22:40;;;;;;;6.30;4.60;;;19.20;81.60;;;;;;10491987;28;20480;-58
2023/10/10 01:27:43;;;;;;;8.30;4.53;;;19.20;81.60;;;;;;10478310;28;20036;-58
2023/10/10 01:32:50;;;;;;;4.45;3.95;;;19.20;81.60;;;;;;10491745;28;20028;-58
2023/10/10 01:37:54;;;;;;;5.20;4.28;;;19.20;81.60;;;;;;10491066;28;20020;-57
2023/10/10 01:42:59;;;;;;;6.25;4.32;;;19.20;81.60;;;;;;10473706;28;20032;-58
2023/10/10 01:48:08;;;;;;;7.65;5.60;;;19.20;81.50;;;;;;10491094;28;20032;-58
2023/10/10 01:53:10;;;;;;;6.13;4.50;;;19.20;81.50;;;;;;10489078;28;20147;-58
2023/10/10 01:58:12;;;;;;;5.32;4.43;;;19.20;81.50;;;;;;10492938;28;20476;-57
2023/10/10 02:03:13;;;;;;;5.97;4.53;;;19.20;81.50;;;;;;10496368;28;20087;-58
2023/10/10 02:08:17;;;;;;;5.68;4.72;;;19.20;81.50;;;;;;10498663;28;20559;-58
2023/10/10 02:13:19;;;;;;;6.03;5.20;;;19.20;81.40;;;;;;10499393;28;20958;-57
2023/10/10 02:18:39;;;;;;;9.02;5.18;;;19.20;81.40;;;;;;10498210;28;20048;-58
2023/10/10 02:23:44;;;;;;;7.43;5.32;;;19.20;81.40;;;;;;10498960;28;20067;-58
2023/10/10 02:28:48;;;;;;;6.85;4.68;;;19.20;81.40;;;;;;10497958;28;20418;-57
2023/10/10 02:33:58;;;;;;;5.97;5.22;;;19.20;81.30;;;;;;10498340;28;20025;-58
2023/10/10 02:49:37;;;;;;;5.53;4.18;;;19.20;81.30;;;;;;10408963;28;20030;-57
2023/10/10 02:54:53;;;;;;;5.57;4.43;;;19.20;81.30;;;;;;10409142;28;20551;-57
2023/10/10 03:05:20;;;;;;;5.28;4.28;;;19.20;81.30;;;;;;10407819;28;20068;-58
2023/10/10 03:10:39;;;;;;;5.30;4.38;;;19.10;81.20;;;;;;10408030;28;20072;-58
2023/10/10 03:15:51;;;;;;;6.22;4.72;;;19.20;81.30;;;;;;10408386;28;20089;-57
2023/10/10 03:21:12;;;;;;;6.50;5.30;;;19.20;81.30;;;;;;10470456;28;20518;-58
2023/10/10 03:26:19;;;;;;;7.80;5.82;;;19.20;81.20;;;;;;10495707;28;20051;-58
2023/10/10 03:31:31;;;;;;;6.82;4.90;;;19.10;81.20;;;;;;10495606;28;20496;-58
2023/10/10 03:36:40;;;;;;;6.65;4.82;;;19.10;81.20;;;;;;10494325;28;20063;-58
2023/10/10 05:28:15;;;;;;;9.63;5.72;;;19.40;81.30;;;;;;10490661;28;20115;-58
2023/10/10 05:33:19;;;;;;;11.70;5.53;;;19.40;81.20;;;;;;10492355;28;20025;-58
2023/10/10 05:38:20;;;;;;;7.57;4.70;;;19.40;81.00;;;;;;10490875;28;20066;-58
2023/10/10 05:43:26;;;;;;;25.20;6.95;;;19.40;81.80;;;;;;10490805;28;20078;-59
2023/10/10 05:48:27;;;;;;;13.77;4.82;;;19.40;81.10;;;;;;10484881;28;20028;-58
2023/10/10 05:53:32;;;;;;;18.02;7.63;;;19.30;81.30;;;;;;10461328;28;20044;-59
2023/10/10 05:58:34;;;;;;;14.00;6.75;;;19.30;81.30;;;;;;10488912;28;20517;-57
2023/10/10 06:03:36;;;;;;;19.52;7.45;;;19.20;81.10;;;;;;10491294;28;20482;-57
2023/10/10 06:08:36;;;;;;;16.65;7.60;;;19.30;81.50;;;;;;10490678;28;20039;-58
2023/10/10 06:13:40;;;;;;;15.98;6.85;;;19.30;81.00;;;;;;10490427;28;20035;-57
2023/10/10 06:18:49;;;;;;;17.00;8.00;;;19.30;81.10;;;;;;10489504;28;20134;-59
2023/10/10 06:23:50;;;;;;;11.45;7.22;;;19.30;81.20;;;;;;10471272;28;20042;-59
2023/10/10 06:28:53;;;;;;;14.43;6.93;;;19.20;81.10;;;;;;10489337;28;20033;-59
2023/10/10 06:33:57;;;;;;;10.82;6.72;;;19.20;81.00;;;;;;10489883;28;20052;-59
2023/10/10 06:44:13;;;;;;;10.57;7.55;;;19.20;81.00;;;;;;10496819;28;20036;-56
2023/10/10 06:49:14;;;;;;;11.30;6.95;;;19.20;81.00;;;;;;10496045;28;20052;-60
2023/10/10 06:54:27;;;;;;;17.77;8.52;;;19.20;81.00;;;;;;10496093;28;20459;-59
2023/10/10 06:59:29;;;;;;;12.88;7.82;;;19.20;81.00;;;;;;10495724;28;20484;-59
2023/10/10 07:04:35;;;;;;;12.02;7.45;;;19.20;81.00;;;;;;10495667;28;20484;-58
2023/10/10 07:09:37;;;;;;;13.60;9.15;;;19.20;81.00;;;;;;10495666;28;20047;-59
2023/10/10 07:14:40;;;;;;;13.85;7.90;;;19.10;80.90;;;;;;10494580;28;20059;-59
2023/10/10 07:25:08;;;;;;;11.38;7.95;;;19.10;80.90;;;;;;10495625;28;20527;-58
2023/10/10 07:30:16;;;;;;;12.02;8.20;;;19.20;80.90;;;;;;10494096;28;20029;-58
2023/10/10 07:35:25;;;;;;;11.37;8.80;;;19.20;80.90;;;;;;10494772;28;20024;-59
2023/10/10 07:40:30;;;;;;;9.93;7.03;;;19.10;80.90;;;;;;10494332;28;20111;-57
2023/10/10 07:45:34;;;;;;;12.77;9.00;;;19.20;80.90;;;;;;10494607;28;20089;-59
2023/10/10 07:50:35;;;;;;;14.45;8.40;;;19.20;81.00;;;;;;10492614;28;20027;-59
2023/10/10 08:01:16;;;;;;;12.57;7.05;;;19.20;81.00;;;;;;10313406;28;20048;-59
2023/10/10 08:06:24;;;;;;;10.68;8.20;;;19.20;81.00;;;;;;10324030;28;20445;-59
2023/10/10 08:11:35;;;;;;;10.30;8.55;;;19.20;80.90;;;;;;10323291;28;20038;-58
2023/10/10 08:16:39;;;;;;;12.50;8.40;;;19.20;80.80;;;;;;10323410;28;20054;-58
2023/10/10 08:21:48;;;;;;;11.73;7.95;;;19.20;80.80;;;;;;10306231;28;20481;-58
2023/10/10 08:26:51;;;;;;;;;;;19.20;80.80;;;;;;10323383;28;20030;-59
2023/10/10 08:31:52;;;;;;;11.77;8.75;;;19.20;80.90;;;;;;10302877;28;20434;-58
2023/10/10 08:37:02;;;;;;;11.20;8.63;;;19.20;80.70;;;;;;10436046;28;20044;-59
2023/10/10 08:42:05;;;;;;;11.05;8.07;;;19.20;80.70;;;;;;10491597;28;20029;-59
2023/10/10 08:47:15;;;;;;;11.07;8.88;;;19.30;80.80;;;;;;10474322;28;20031;-59
2023/10/10 08:52:18;;;;;;;13.60;8.10;;;19.20;80.60;;;;;;10491356;28;20021;-58
2023/10/10 08:57:27;;;;;;;10.45;8.57;;;19.20;80.50;;;;;;10491295;28;20031;-59
2023/10/10 09:02:33;;;;;;;11.27;9.18;;;19.30;80.60;;;;;;10480679;28;20904;-59
2023/10/10 09:07:42;;;;;;;11.32;7.97;;;19.30;80.50;;;;;;10491199;28;20078;-59
2023/10/10 09:12:52;;;;;;;10.70;8.00;;;19.30;80.50;;;;;;10490980;28;20400;-59
2023/10/10 09:18:22;;;;;;;10.07;8.32;;;19.30;80.50;;;;;;10490741;28;20044;-59
2023/10/10 09:23:28;;;;;;;10.88;8.23;;;19.30;80.40;;;;;;10490686;28;20035;-58
2023/10/10 09:28:49;;;;;;;12.65;8.07;;;19.30;80.40;;;;;;10491069;28;20127;-58
2023/10/10 09:33:54;;;;;;;8.88;7.32;;;19.30;80.40;;;;;;10490032;28;20029;-59
2023/10/10 09:39:14;;;;;;;10.35;7.70;;;19.30;80.30;;;;;;10490528;28;20647;-59
2023/10/10 09:49:40;;;;;;;9.43;7.00;;;19.40;80.40;;;;;;10472945;28;20544;-59
2023/10/10 09:54:44;;;;;;;10.45;7.40;;;19.40;80.30;;;;;;10490502;28;20025;-59
2023/10/10 09:59:52;;;;;;;9.13;6.88;;;19.50;80.30;;;;;;10490179;28;20571;-59
2023/10/10 10:04:54;;;;;;;9.27;7.03;;;19.50;80.30;;;;;;10472656;28;20020;-58
2023/10/10 10:10:22;;;;;;;8.00;6.40;;;19.50;80.30;;;;;;10472167;28;20013;-59
2023/10/10 10:15:53;;;;;;;10.57;7.05;;;19.50;80.20;;;;;;10477492;28;20080;-59
2023/10/10 10:26:21;;;;;;;9.95;7.07;;;19.60;80.20;;;;;;10481865;28;20040;-58
2023/10/10 10:31:30;;;;;;;9.68;7.10;;;19.60;80.10;;;;;;10495850;28;20039;-58
2023/10/10 10:36:41;;;;;;;7.88;6.18;;;19.70;80.10;;;;;;10482731;28;20115;-60
2023/10/10 10:41:42;;;;;;;7.13;6.18;;;19.70;80.00;;;;;;10496622;28;20025;-57
2023/10/10 10:46:48;;;;;;;12.23;6.13;;;19.70;79.90;;;;;;10486642;28;20407;-58
2023/10/10 10:52:07;;;;;;;8.10;6.15;;;19.70;80.00;;;;;;10495868;28;20142;-57
2023/10/10 10:57:13;;;;;;;8.60;5.50;;;19.80;80.10;;;;;;10496509;28;20020;-57
2023/10/10 11:02:29;;;;;;;8.20;6.10;;;19.80;80.10;;;;;;10495871;28;20024;-57
2023/10/10 11:07:40;;;;;;;9.05;5.93;;;19.80;80.00;;;;;;10495430;28;20056;-57
2023/10/10 11:12:41;;;;;;;7.35;5.70;;;19.90;80.10;;;;;;10495335;28;20036;-57
2023/10/10 11:17:53;;;;;;;7.63;5.80;;;19.90;80.20;;;;;;10495420;28;20071;-57
2023/10/10 11:23:11;;;;;;;7.05;5.13;;;19.90;80.40;;;;;;10464769;28;20033;-58
2023/10/10 11:28:23;;;;;;;7.97;6.03;;;20.00;80.60;;;;;;10494504;28;20501;-58
2023/10/10 11:33:48;;;;;;;6.82;5.50;;;20.00;80.60;;;;;;10476114;28;20124;-57
2023/10/10 11:38:56;;;;;;;7.18;6.13;;;20.00;80.50;;;;;;10486554;28;20647;-57
2023/10/10 11:44:03;;;;;;;8.73;5.22;;;20.10;80.60;;;;;;10493812;28;20059;-58
2023/10/10 11:49:04;;;;;;;12.05;5.70;;;20.10;80.60;;;;;;10476804;28;20462;-58
2023/10/10 11:54:05;;;;;;;7.28;5.65;;;20.10;80.60;;;;;;10494252;28;20107;-58
2023/10/10 11:59:14;;;;;;;10.75;6.65;;;20.10;80.60;;;;;;10494096;28;20032;-59
2023/10/10 12:04:20;;;;;;;9.50;5.85;;;20.10;80.70;;;;;;10492669;28;20033;-58
2023/10/10 12:09:21;;;;;;;9.18;6.25;;;20.10;80.70;;;;;;10475205;28;20498;-59
2023/10/10 12:14:24;;;;;;;7.97;6.60;;;20.10;80.70;;;;;;10492530;28;20056;-58
2023/10/10 12:19:28;;;;;;;8.13;5.88;;;20.10;80.80;;;;;;10483901;28;20132;-58
2023/10/10 12:24:29;;;;;;;9.93;6.50;;;20.00;80.80;;;;;;10489265;28;20056;-58
2023/10/10 12:29:30;;;;;;;8.40;6.90;;;20.00;80.90;;;;;;10492561;28;20460;-59
2023/10/10 12:34:30;;;;;;;9.50;6.32;;;19.90;80.90;;;;;;10480990;28;20250;-59
2023/10/10 12:39:31;;;;;;;8.68;5.88;;;20.00;81.00;;;;;;10480663;28;20085;-58
2023/10/10 12:44:32;;;;;;;7.03;5.88;;;20.00;80.70;;;;;;10483889;28;20032;-59
2023/10/10 12:49:36;;;;;;;10.55;6.47;;;20.00;80.80;;;;;;10486688;28;20043;-59
2023/10/10 12:54:38;;;;;;;7.90;5.93;;;20.00;80.80;;;;;;10490450;28;20028;-59
2023/10/10 12:59:39;;;;;;;7.85;5.50;;;20.00;80.70;;;;;;10489073;28;20032;-59
2023/10/10 13:04:45;;;;;;;8.52;6.18;;;20.00;80.70;;;;;;10472578;28;20387;-59
2023/10/10 13:09:46;;;;;;;9.55;6.15;;;20.00;80.70;;;;;;10490614;28;20024;-58
2023/10/10 13:14:53;;;;;;;8.00;5.85;;;20.00;80.70;;;;;;10490129;28;20035;-58
2023/10/10 13:19:54;;;;;;;11.25;6.60;;;20.00;80.70;;;;;;10483499;28;20492;-59
2023/10/10 13:24:55;;;;;;;9.38;6.20;;;20.00;80.70;;;;;;10482382;28;20093;-59
2023/10/10 13:29:56;;;;;;;8.52;6.63;;;20.00;80.50;;;;;;10473975;28;20692;-59
2023/10/10 13:34:56;;;;;;;8.10;5.85;;;20.00;80.30;;;;;;10486802;28;20036;-59
2023/10/10 13:39:59;;;;;;;9.02;7.00;;;20.00;80.20;;;;;;10490028;28;20491;-59
2023/10/10 13:45:09;;;;;;;8.20;6.28;;;20.00;80.40;;;;;;10488738;28;20125;-59
2023/10/10 13:50:28;;;;;;;9.27;7.35;;;19.90;80.40;;;;;;10488328;28;20055;-58
2023/10/10 13:55:34;;;;;;;8.98;6.80;;;20.00;80.30;;;;;;10488593;28;20041;-61
2023/10/10 14:00:35;;;;;;;8.35;7.05;;;20.00;79.70;;;;;;10471242;28;20040;-58
2023/10/10 14:05:41;;;;;;;9.55;7.72;;;20.00;79.40;;;;;;10489668;28;20031;-59
2023/10/10 14:10:42;;;;;;;11.05;6.78;;;20.00;79.00;;;;;;10489683;28;20028;-58
2023/10/10 14:16:01;;;;;;;11.73;7.57;;;19.90;79.30;;;;;;10488755;28;20045;-58
2023/10/10 14:21:10;;;;;;;15.20;8.32;;;20.10;79.90;;;;;;10472469;28;20636;-58
2023/10/10 14:26:12;;;;;;;13.35;8.85;;;20.10;80.10;;;;;;10489252;28;20036;-59
2023/10/10 14:31:13;;;;;;;13.82;7.93;;;20.10;80.50;;;;;;10489213;28;20034;-58
2023/10/10 14:36:14;;;;;;;11.82;7.47;;;20.00;80.30;;;;;;10488741;28;20032;-58
2023/10/10 14:41:21;;;;;;;13.73;7.18;;;20.10;80.50;;;;;;10488759;28;20547;-57
2023/10/10 14:46:31;;;;;;;33.40;8.13;;;20.10;80.60;;;;;;10470146;28;20032;-58
2023/10/10 14:51:34;;;;;;;26.08;6.97;;;20.20;80.00;;;;;;10485586;28;20040;-58
2023/10/10 14:56:37;;;;;;;20.00;8.65;;;20.00;80.00;;;;;;10483246;28;20043;-57
2023/10/10 15:01:38;;;;;;;17.73;8.10;;;20.00;80.30;;;;;;10485359;28;20399;-58
2023/10/10 15:06:42;;;;;;;16.45;7.55;;;20.10;80.10;;;;;;10495298;28;20051;-58
2023/10/10 15:11:45;;;;;;;13.98;7.40;;;20.00;80.00;;;;;;10472186;28;20032;-57
2023/10/10 15:16:47;;;;;;;15.35;6.43;;;20.00;80.40;;;;;;10493719;28;20139;-57
2023/10/10 15:21:48;;;;;;;16.63;7.82;;;20.10;80.00;;;;;;10493708;28;20039;-57
2023/10/10 15:26:51;;;;;;;14.20;6.97;;;20.10;80.00;;;;;;10493352;28;20403;-57
2023/10/10 15:31:51;;;;;;;12.43;6.15;;;20.00;80.10;;;;;;10495476;28;20383;-57
2023/10/10 15:36:52;;;;;;;8.13;5.82;;;19.90;80.20;;;;;;10494312;28;20032;-57
2023/10/10 15:41:53;;;;;;;12.25;6.07;;;19.90;80.20;;;;;;10495094;28;20024;-58
2023/10/10 15:46:58;;;;;;;13.80;7.30;;;19.90;80.30;;;;;;10494230;28;20375;-57
2023/10/10 15:52:03;;;;;;;10.10;6.32;;;19.90;80.20;;;;;;10493992;28;20060;-58
2023/10/10 15:57:08;;;;;;;9.63;5.97;;;19.80;80.20;;;;;;10493571;28;20025;-57
2023/10/10 16:02:09;;;;;;;10.15;6.15;;;19.80;80.20;;;;;;10483002;28;20026;-56
2023/10/10 16:07:11;;;;;;;8.98;6.32;;;19.80;80.10;;;;;;10492726;28;20356;-56
2023/10/10 16:12:12;;;;;;;11.55;6.53;;;19.80;80.00;;;;;;10492802;28;20107;-58
2023/10/10 16:17:16;;;;;;;8.95;6.68;;;19.80;80.00;;;;;;10492393;28;20044;-57
2023/10/10 16:22:17;;;;;;;12.50;6.15;;;19.80;80.10;;;;;;10488922;28;20041;-58
2023/10/10 16:27:17;;;;;;;11.88;6.13;;;19.90;81.20;;;;;;10493018;28;20049;-58
2023/10/10 16:32:18;;;;;;;10.80;5.78;;;20.10;81.90;;;;;;10493744;28;20074;-57
2023/10/10 16:37:21;;;;;;;11.02;5.95;;;20.30;81.30;;;;;;10493164;28;20055;-57
2023/10/10 16:42:23;;;;;;;11.65;5.78;;;20.40;81.20;;;;;;10493210;28;20082;-57
2023/10/10 16:47:24;;;;;;;17.35;6.18;;;20.40;81.10;;;;;;10492407;28;20059;-58
2023/10/10 16:52:25;;;;;;;12.82;5.32;;;20.40;81.20;;;;;;10474768;28;20039;-58
2023/10/10 16:57:26;;;;;;;13.05;5.72;;;20.40;81.30;;;;;;10491959;28;20037;-58
2023/10/10 17:02:30;;;;;;;10.00;5.43;;;20.40;81.30;;;;;;10469402;28;20054;-59
2023/10/10 17:07:31;;;;;;;11.10;6.57;;;20.40;81.10;;;;;;10488735;28;20515;-58
2023/10/10 17:12:32;;;;;;;15.95;6.00;;;20.30;81.30;;;;;;10492257;28;20031;-57
2023/10/10 17:17:33;;;;;;;18.58;7.60;;;20.40;81.20;;;;;;10491661;28;20037;-58
2023/10/10 17:22:35;;;;;;;11.68;7.03;;;20.30;81.10;;;;;;10470036;28;20025;-59
2023/10/10 17:27:37;;;;;;;17.63;7.50;;;20.20;81.30;;;;;;10476976;28;20039;-60
2023/10/10 17:32:42;;;;;;;13.75;5.97;;;20.10;81.40;;;;;;10480624;28;20041;-60
2023/10/10 17:37:43;;;;;;;13.23;6.28;;;20.00;81.50;;;;;;10452047;28;20479;-59
2023/10/10 17:42:48;;;;;;;13.88;6.60;;;20.00;81.50;;;;;;10489293;28;20040;-59
2023/10/10 17:47:48;;;;;;;10.98;5.93;;;20.00;81.60;;;;;;10459096;28;20075;-58
2023/10/10 17:52:49;;;;;;;19.80;6.78;;;20.00;81.40;;;;;;10473955;28;20025;-58
2023/10/10 17:57:52;;;;;;;17.20;6.78;;;20.00;81.70;;;;;;10476381;28;20664;-58
2023/10/10 18:02:55;;;;;;;17.83;6.45;;;20.00;81.90;;;;;;10482263;28;20047;-58
2023/10/10 18:07:58;;;;;;;16.77;6.38;;;20.00;81.80;;;;;;10484381;28;20035;-58
2023/10/10 18:13:01;;;;;;;15.52;6.50;;;20.00;81.70;;;;;;10488598;28;20025;-58
2023/10/10 18:18:07;;;;;;;14.80;6.25;;;20.00;81.70;;;;;;10485694;28;20056;-59
2023/10/10 18:23:11;;;;;;;25.30;7.03;;;19.90;81.70;;;;;;10490221;28;20029;-58
2023/10/10 18:28:12;;;;;;;16.58;5.97;;;19.90;81.50;;;;;;10489623;28;20028;-58
2023/10/10 18:33:13;;;;;;;13.90;6.25;;;19.90;81.60;;;;;;10482350;28;20055;-58
2023/10/10 18:38:13;;;;;;;11.90;6.70;;;19.90;81.60;;;;;;10467838;28;20460;-56
2023/10/10 18:43:14;;;;;;;17.10;6.18;;;20.00;81.70;;;;;;10495262;28;20032;-58
2023/10/10 18:48:16;;;;;;;8.43;5.20;;;19.90;81.60;;;;;;10493626;28;20024;-58
2023/10/10 18:53:17;;;;;;;12.15;7.03;;;19.90;81.50;;;;;;10483932;28;20035;-58
2023/10/10 18:58:18;;;;;;;13.20;5.97;;;19.90;81.40;;;;;;10484577;28;20032;-58
2023/10/10 19:03:18;;;;;;;14.77;6.07;;;19.90;81.20;;;;;;10482344;28;20070;-58
2023/10/10 19:08:20;;;;;;;9.95;5.90;;;19.90;81.50;;;;;;10493152;28;20028;-59
2023/10/10 19:13:21;;;;;;;13.57;6.18;;;19.90;81.50;;;;;;10493924;28;20040;-58
2023/10/10 19:18:22;;;;;;;11.52;5.70;;;20.10;81.80;;;;;;10489204;28;20056;-58
2023/10/10 19:23:23;;;;;;;9.68;5.50;;;20.00;81.50;;;;;;10481123;28;20541;-58
2023/10/10 19:28:23;;;;;;;12.85;6.03;;;19.90;81.60;;;;;;10494851;28;20036;-59
2023/10/10 19:33:25;;;;;;;16.55;7.30;;;19.90;81.50;;;;;;10494565;28;20069;-59
2023/10/10 19:38:26;;;;;;;9.43;5.63;;;19.90;81.80;;;;;;10457116;28;20438;-59
2023/10/10 19:43:28;;;;;;;14.50;6.10;;;20.00;81.90;;;;;;10495162;28;20036;-58
2023/10/10 19:48:29;;;;;;;8.98;5.35;;;19.90;81.80;;;;;;10494244;28;20020;-59
2023/10/10 19:53:31;;;;;;;8.90;4.80;;;19.90;81.90;;;;;;10494769;28;20036;-59
2023/10/10 19:58:32;;;;;;;7.63;5.43;;;19.90;81.90;;;;;;10495073;28;20201;-59
2023/10/10 20:03:35;;;;;;;12.50;5.05;;;19.90;81.80;;;;;;10494516;28;20090;-59
2023/10/10 20:08:36;;;;;;;8.38;6.10;;;19.90;81.80;;;;;;10494288;28;20107;-59
2023/10/10 20:13:36;;;;;;;11.05;5.18;;;19.90;81.80;;;;;;10494072;28;20031;-59
2023/10/10 20:18:37;;;;;;;11.40;5.55;;;19.90;81.80;;;;;;10494291;28;20044;-59
2023/10/10 20:23:41;;;;;;;8.80;5.07;;;19.80;81.70;;;;;;10493278;28;20499;-59
2023/10/10 20:28:43;;;;;;;8.85;5.47;;;19.80;81.70;;;;;;10493431;28;20104;-58
2023/10/10 20:33:44;;;;;;;10.48;5.70;;;19.80;81.60;;;;;;10475914;28;20047;-58
2023/10/10 20:38:45;;;;;;;10.15;5.38;;;19.80;81.60;;;;;;10494058;28;20451;-58
2023/10/10 20:43:46;;;;;;;10.48;5.63;;;19.80;81.60;;;;;;10492814;28;20024;-59
2023/10/10 20:48:47;;;;;;;7.80;5.18;;;19.80;81.60;;;;;;10492860;28;20024;-59
2023/10/10 20:53:48;;;;;;;9.95;5.10;;;19.80;81.50;;;;;;10492209;28;20539;-59
2023/10/10 20:58:50;;;;;;;6.25;5.03;;;19.80;81.40;;;;;;10492277;28;20044;-58
2023/10/10 21:03:51;;;;;;;7.60;4.45;;;19.80;81.40;;;;;;10492076;28;20074;-59
2023/10/10 21:08:51;;;;;;;7.47;4.72;;;19.70;81.20;;;;;;10492174;28;20043;-59
2023/10/10 21:13:52;;;;;;;6.45;4.72;;;19.70;81.20;;;;;;10491561;28;20031;-59
2023/10/10 21:18:55;;;;;;;4.85;4.35;;;19.70;81.10;;;;;;10491921;28;20094;-59
2023/10/10 21:23:55;;;;;;;8.88;5.10;;;19.70;81.10;;;;;;10491331;28;20028;-58
2023/10/10 21:28:56;;;;;;;8.10;4.85;;;19.70;81.10;;;;;;10491985;28;20032;-59
2023/10/10 21:33:57;;;;;;;5.57;4.05;;;19.70;81.10;;;;;;10491102;28;20032;-58
2023/10/10 21:38:58;;;;;;;5.93;4.43;;;19.70;81.10;;;;;;10473645;28;20078;-58
2023/10/10 21:43:59;;;;;;;6.65;5.03;;;19.70;81.10;;;;;;10491243;28;20043;-58
2023/10/10 21:48:59;;;;;;;10.25;5.93;;;19.70;81.00;;;;;;10491289;28;20035;-58
2023/10/10 21:54:00;;;;;;;8.65;4.80;;;19.70;81.10;;;;;;10491101;28;20036;-58
2023/10/10 21:59:01;;;;;;;6.43;4.72;;;19.70;81.10;;;;;;10481694;28;20511;-58
2023/10/10 22:04:03;;;;;;;9.57;5.72;;;19.70;81.00;;;;;;10490235;28;20029;-58
2023/10/10 22:09:06;;;;;;;5.95;4.93;;;19.70;81.10;;;;;;10492710;28;20032;-58
2023/10/10 22:14:10;;;;;;;6.72;5.10;;;19.70;81.00;;;;;;10499239;28;20074;-58
2023/10/10 22:19:13;;;;;;;5.18;4.32;;;19.70;81.00;;;;;;10498779;28;20076;-58
2023/10/10 22:24:14;;;;;;;7.32;4.45;;;19.70;80.90;;;;;;10498570;28;20051;-59
2023/10/10 22:29:15;;;;;;;6.65;4.22;;;19.70;80.90;;;;;;10498062;28;20028;-58
2023/10/10 22:34:15;;;;;;;7.07;5.03;;;19.60;80.90;;;;;;10498223;28;20165;-58
2023/10/10 22:39:16;;;;;;;5.78;4.38;;;19.60;80.90;;;;;;10498278;28;20032;-58
2023/10/10 22:44:17;;;;;;;5.88;4.88;;;19.60;80.90;;;;;;10497549;28;20036;-59
2023/10/10 22:49:18;;;;;;;6.93;4.45;;;19.60;80.80;;;;;;10480228;28;20039;-58
2023/10/10 22:54:19;;;;;;;6.03;4.28;;;19.60;80.90;;;;;;10497560;28;20048;-59
2023/10/10 22:59:21;;;;;;;6.45;4.10;;;19.60;80.80;;;;;;10497660;28;20176;-57
2023/10/10 23:04:22;;;;;;;6.05;4.10;;;19.60;80.80;;;;;;10478880;28;20353;-58
2023/10/10 23:09:24;;;;;;;6.10;4.25;;;19.60;80.80;;;;;;10497310;28;20028;-58
2023/10/10 23:14:28;;;;;;;5.32;4.28;;;19.60;80.70;;;;;;10496621;28;20476;-58
2023/10/10 23:19:29;;;;;;;6.50;4.25;;;19.60;80.70;;;;;;10497150;28;20049;-59
2023/10/10 23:24:29;;;;;;;6.10;4.18;;;19.60;80.70;;;;;;10496482;28;20028;-59
2023/10/10 23:29:31;;;;;;;6.30;3.83;;;19.60;80.70;;;;;;10496904;28;20403;-59
2023/10/10 23:34:32;;;;;;;7.07;4.35;;;19.60;80.70;;;;;;10496269;28;20075;-58
2023/10/10 23:39:34;;;;;;;7.20;4.53;;;19.60;80.60;;;;;;10496268;28;20028;-58
2023/10/10 23:44:41;;;;;;;6.30;3.90;;;19.60;80.60;;;;;;10495417;28;20033;-59
2023/10/10 23:49:41;;;;;;;7.05;3.95;;;19.60;80.70;;;;;;10496214;28;20074;-59
2023/10/10 23:54:45;;;;;;;5.75;3.92;;;19.60;80.60;;;;;;10495772;28;20029;-58
2023/10/10 23:59:48;;;;;;;7.07;4.00;;;19.60;80.60;;;;;;10484849;28;20058;-59
